Terminal Aerodrome Forecast
Issued by NWS

Home | Current Version | Previous Version | Graphics & Text | Print | Product List | Glossary On
Versions: 1 2 3 4 5 6 7 8 9 10 11 12 13 14 15 16 17
000
FTUS43 KICT 270451 AAA
TAFRSL
TAF AMD
KRSL 270451Z 2705/2724 02017G25KT P6SM BKN010 BKN050 BKN100
     FM271500 09006KT P6SM BKN035=

USA.gov is the U.S. government's official web portal to all federal, state and local government web resources and services.